createdAt,value
2023-03-02T00:01:28.485Z,-2.03
2023-03-02T00:03:59.001Z,-2.04
2023-03-02T00:06:28.304Z,-1.97
2023-03-02T00:08:55.626Z,-1.92
2023-03-02T00:11:22.376Z,-1.90
2023-03-02T00:13:48.934Z,-1.87
2023-03-02T00:16:15.519Z,-1.86
2023-03-02T00:18:42.027Z,-1.84
2023-03-02T00:21:10.579Z,-1.83
2023-03-02T00:23:38.276Z,-1.78
2023-03-02T00:26:06.055Z,-1.75
2023-03-02T00:28:33.758Z,-1.73
2023-03-02T00:31:03.516Z,-1.71
2023-03-02T00:33:29.989Z,-1.72
2023-03-02T00:35:56.533Z,-1.74
2023-03-02T00:38:23.008Z,-1.67
2023-03-02T00:40:49.724Z,-1.66
2023-03-02T00:43:16.671Z,-1.70
2023-03-02T00:45:43.183Z,-1.77
2023-03-02T00:48:09.672Z,-1.81
2023-03-02T00:50:41.102Z,-1.79
2023-03-02T00:53:09.285Z,-1.78
2023-03-02T00:55:36.930Z,-1.71
2023-03-02T00:58:05.083Z,-1.67
2023-03-02T01:00:32.577Z,-1.68
2023-03-02T01:03:03.197Z,-1.72
2023-03-02T01:05:29.767Z,-1.77
2023-03-02T01:07:56.314Z,-1.77
2023-03-02T01:10:22.835Z,-1.73
2023-03-02T01:12:49.412Z,-1.68
2023-03-02T01:15:15.926Z,-1.68
2023-03-02T01:17:43.876Z,-1.73
2023-03-02T01:20:11.802Z,-1.70
2023-03-02T01:22:38.377Z,-1.73
2023-03-02T01:25:05.947Z,-1.72
2023-03-02T01:27:32.507Z,-1.70
2023-03-02T01:29:58.990Z,-1.62
2023-03-02T01:32:25.585Z,-1.59
2023-03-02T01:34:52.142Z,-1.58
2023-03-02T01:37:20.685Z,-1.53
2023-03-02T01:39:47.218Z,-1.48
2023-03-02T01:42:13.725Z,-1.47
2023-03-02T01:44:51.454Z,-1.49
2023-03-02T01:47:32.247Z,-1.49
2023-03-02T01:50:27.742Z,-1.47
2023-03-02T01:52:57.812Z,-1.42
2023-03-02T01:55:29.046Z,-1.42
2023-03-02T01:57:58.238Z,-1.39
2023-03-02T02:00:29.688Z,-1.36
2023-03-02T02:03:08.964Z,-1.35
2023-03-02T02:05:39.271Z,-1.36
2023-03-02T02:08:07.149Z,-1.34
2023-03-02T02:10:34.494Z,-1.35
2023-03-02T02:13:01.553Z,-1.34
2023-03-02T02:15:28.188Z,-1.28
2023-03-02T02:17:55.582Z,-1.23
2023-03-02T02:20:25.516Z,-1.19
2023-03-02T02:22:57.458Z,-1.24
2023-03-02T02:25:47.995Z,-1.21
2023-03-02T02:28:21.668Z,-1.27
2023-03-02T02:30:52.455Z,-1.34
2023-03-02T02:33:23.847Z,-1.28
2023-03-02T02:35:55.169Z,-1.30
2023-03-02T02:38:22.683Z,-1.36
2023-03-02T02:40:55.261Z,-1.30
2023-03-02T02:43:27.801Z,-1.28
2023-03-02T02:45:57.212Z,-1.30
2023-03-02T02:48:27.186Z,-1.29
2023-03-02T02:51:00.518Z,-1.34
2023-03-02T02:53:42.703Z,-1.38
2023-03-02T02:56:10.350Z,-1.36
2023-03-02T02:58:44.035Z,-1.39
2023-03-02T03:01:19.308Z,-1.37
2023-03-02T03:03:58.403Z,-1.38
2023-03-02T03:06:30.513Z,-1.48
2023-03-02T03:08:59.784Z,-1.51
2023-03-02T03:11:41.843Z,-1.42
2023-03-02T03:14:13.238Z,-1.42
2023-03-02T03:16:42.165Z,-1.40
2023-03-02T03:19:22.952Z,-1.41
2023-03-02T03:21:53.120Z,-1.42
2023-03-02T03:24:21.117Z,-1.40
2023-03-02T03:26:48.412Z,-1.37
2023-03-02T03:29:16.930Z,-1.34
2023-03-02T03:31:43.957Z,-1.38
2023-03-02T03:34:12.358Z,-1.42
2023-03-02T03:36:38.842Z,-1.44
2023-03-02T03:39:06.320Z,-1.50
2023-03-02T03:41:33.528Z,-1.47
2023-03-02T03:44:00.749Z,-1.55
2023-03-02T03:46:30.914Z,-1.50
2023-03-02T03:48:57.521Z,-1.49
2023-03-02T03:51:24.842Z,-1.49
2023-03-02T03:53:59.806Z,-1.52
2023-03-02T03:56:37.017Z,-1.56
2023-03-02T03:59:08.601Z,-1.55
2023-03-02T04:01:48.883Z,-1.48
2023-03-02T04:04:20.504Z,-1.52
2023-03-02T04:06:47.656Z,-1.59
2023-03-02T04:09:15.575Z,-1.55
2023-03-02T04:11:43.874Z,-1.47
2023-03-02T04:14:10.917Z,-1.49
2023-03-02T04:16:38.188Z,-1.48
2023-03-02T04:19:09.643Z,-1.55
2023-03-02T04:21:40.743Z,-1.56
2023-03-02T04:24:08.782Z,-1.60
2023-03-02T04:26:37.638Z,-1.71
2023-03-02T04:29:04.926Z,-1.80
2023-03-02T04:31:32.250Z,-1.80
2023-03-02T04:34:00.766Z,-1.90
2023-03-02T04:36:27.305Z,-1.93
2023-03-02T04:38:53.948Z,-1.90
2023-03-02T04:41:21.851Z,-1.89
2023-03-02T04:43:48.404Z,-1.93
2023-03-02T04:46:20.110Z,-1.94
2023-03-02T04:48:46.620Z,-1.98
2023-03-02T04:51:27.716Z,-2.05
2023-03-02T04:53:56.389Z,-2.14
2023-03-02T04:56:23.309Z,-2.10
2023-03-02T04:58:50.500Z,-2.15
2023-03-02T05:01:18.871Z,-2.04
2023-03-02T05:03:45.717Z,-2.08
2023-03-02T05:06:12.531Z,-2.12
2023-03-02T05:08:39.685Z,-2.20
2023-03-02T05:11:07.840Z,-2.19
2023-03-02T05:13:35.806Z,-2.24
2023-03-02T05:16:03.183Z,-2.24
2023-03-02T05:18:29.998Z,-2.33
2023-03-02T05:20:57.141Z,-2.35
2023-03-02T05:23:25.569Z,-2.41
2023-03-02T05:25:54.348Z,-2.50
2023-03-02T05:28:23.079Z,-2.52
2023-03-02T05:30:50.042Z,-2.50
2023-03-02T05:33:17.013Z,-2.51
2023-03-02T05:35:44.456Z,-2.55
2023-03-02T05:38:11.693Z,-2.42
2023-03-02T05:40:39.172Z,-2.42
2023-03-02T05:43:06.463Z,-2.44
2023-03-02T05:45:36.263Z,-2.49
2023-03-02T05:48:03.495Z,-2.52
2023-03-02T05:50:30.264Z,-2.51
2023-03-02T05:52:58.177Z,-2.52
2023-03-02T05:55:24.685Z,-2.47
2023-03-02T05:57:51.254Z,-2.47
2023-03-02T06:00:18.695Z,-2.46
2023-03-02T06:02:45.319Z,-2.48
2023-03-02T06:05:15.106Z,-2.50
2023-03-02T06:07:41.597Z,-2.51
2023-03-02T06:10:10.514Z,-2.54
2023-03-02T06:12:37.385Z,-2.47
2023-03-02T06:15:05.506Z,-2.47
2023-03-02T06:17:32.581Z,-2.49
2023-03-02T06:19:59.344Z,-2.48
2023-03-02T06:22:26.033Z,-2.46
2023-03-02T06:24:55.252Z,-2.43
2023-03-02T06:27:21.844Z,-2.44
2023-03-02T06:29:48.631Z,-2.43
2023-03-02T06:32:15.321Z,-2.43
2023-03-02T06:34:42.352Z,-2.39
2023-03-02T06:37:09.057Z,-2.40
2023-03-02T06:39:35.515Z,-2.37
2023-03-02T06:42:02.051Z,-2.35
2023-03-02T06:44:28.589Z,-2.30
2023-03-02T06:46:55.130Z,-2.29
2023-03-02T06:49:21.703Z,-2.26
2023-03-02T06:51:49.311Z,-2.24
2023-03-02T06:54:15.836Z,-2.26
2023-03-02T06:56:42.251Z,-2.26
2023-03-02T06:59:08.763Z,-2.24
2023-03-02T07:01:36.344Z,-2.22
2023-03-02T07:04:03.679Z,-2.19
2023-03-02T07:06:30.258Z,-2.15
2023-03-02T07:08:56.802Z,-2.08
2023-03-02T07:11:23.268Z,-2.09
2023-03-02T07:13:49.736Z,-1.97
2023-03-02T07:16:16.442Z,-1.95
2023-03-02T07:18:42.995Z,-1.87
2023-03-02T07:21:09.632Z,-1.78
2023-03-02T07:23:36.325Z,-1.72
2023-03-02T07:26:08.242Z,-1.66
2023-03-02T07:28:39.829Z,-1.60
2023-03-02T07:31:06.658Z,-1.52
2023-03-02T07:33:33.205Z,-1.08
2023-03-02T07:35:59.842Z,0.04
2023-03-02T07:38:26.371Z,0.70
2023-03-02T07:40:52.992Z,1.16
2023-03-02T07:43:19.513Z,1.65
2023-03-02T07:45:46.055Z,2.14
2023-03-02T07:48:12.583Z,2.18
2023-03-02T07:50:39.072Z,2.69
2023-03-02T07:53:05.622Z,3.25
2023-03-02T07:55:32.233Z,4.06
2023-03-02T07:57:58.814Z,4.42
2023-03-02T08:00:25.652Z,4.90
2023-03-02T08:02:52.255Z,4.91
2023-03-02T08:05:18.893Z,4.44
2023-03-02T08:07:46.614Z,4.77
2023-03-02T08:10:13.108Z,5.14
2023-03-02T08:12:39.992Z,5.83
2023-03-02T08:15:06.984Z,5.80
2023-03-02T08:17:33.459Z,5.76
2023-03-02T08:19:59.955Z,5.31
2023-03-02T08:22:26.399Z,5.84
2023-03-02T08:24:52.871Z,6.01
2023-03-02T08:27:19.375Z,6.73
2023-03-02T08:29:45.919Z,6.57
2023-03-02T08:32:12.543Z,6.68
2023-03-02T08:34:39.101Z,6.46
2023-03-02T08:37:05.628Z,5.97
2023-03-02T08:39:33.075Z,6.25
2023-03-02T08:41:59.613Z,6.04
2023-03-02T08:44:26.341Z,5.68
2023-03-02T08:46:52.882Z,6.24
2023-03-02T08:49:19.995Z,6.10
2023-03-02T08:51:46.539Z,5.86
2023-03-02T08:54:13.479Z,5.95
2023-03-02T08:56:41.201Z,5.76
2023-03-02T08:59:12.373Z,6.01
2023-03-02T09:01:39.772Z,5.97
2023-03-02T09:04:08.363Z,6.33
2023-03-02T09:06:37.823Z,5.80
2023-03-02T09:09:05.184Z,5.97
2023-03-02T09:11:32.466Z,6.26
2023-03-02T09:13:59.235Z,6.54
2023-03-02T09:16:26.072Z,6.96
2023-03-02T09:18:53.997Z,7.07
2023-03-02T09:21:21.118Z,6.67
2023-03-02T09:23:47.739Z,6.86
2023-03-02T09:26:14.295Z,7.25
2023-03-02T09:28:40.863Z,6.63
2023-03-02T09:31:08.677Z,6.06
2023-03-02T09:33:35.636Z,5.31
2023-03-02T09:36:09.365Z,4.85
2023-03-02T09:38:35.860Z,4.66
2023-03-02T09:41:40.736Z,4.57
2023-03-02T09:44:30.112Z,4.23
2023-03-02T09:47:04.834Z,4.12
2023-03-02T09:49:36.978Z,4.15
2023-03-02T09:52:29.891Z,4.27
2023-03-02T09:55:00.577Z,4.59
2023-03-02T09:57:38.488Z,4.44
2023-03-02T10:00:19.113Z,4.58
2023-03-02T10:02:53.740Z,4.62
2023-03-02T10:05:29.570Z,4.67
2023-03-02T10:07:58.467Z,4.80
2023-03-02T10:10:34.277Z,4.95
2023-03-02T10:13:16.171Z,5.29
2023-03-02T10:15:57.831Z,5.16
2023-03-02T10:18:34.323Z,5.24
2023-03-02T10:21:07.214Z,5.27
2023-03-02T10:23:49.267Z,5.45
2023-03-02T10:26:42.102Z,5.75
2023-03-02T10:29:26.924Z,5.94
2023-03-02T10:32:13.186Z,5.92
2023-03-02T10:34:39.805Z,5.98
2023-03-02T10:37:16.649Z,5.91
2023-03-02T10:39:43.550Z,6.07
2023-03-02T10:42:40.206Z,6.00
2023-03-02T10:45:28.303Z,6.15
2023-03-02T10:48:04.848Z,6.19
2023-03-02T10:50:31.536Z,6.41
2023-03-02T10:53:00.739Z,6.49
2023-03-02T10:55:29.120Z,6.32
2023-03-02T10:58:07.757Z,6.48
2023-03-02T11:00:35.614Z,6.55
2023-03-02T11:03:20.500Z,6.42
2023-03-02T11:05:47.773Z,6.48
2023-03-02T11:08:26.228Z,6.42
2023-03-02T11:11:00.532Z,6.53
2023-03-02T11:13:34.343Z,6.64
2023-03-02T11:16:03.443Z,6.53
2023-03-02T11:18:40.143Z,6.51
2023-03-02T11:21:16.126Z,6.68
2023-03-02T11:24:10.719Z,6.61
2023-03-02T11:26:56.606Z,6.62
2023-03-02T11:29:37.575Z,6.96
2023-03-02T11:32:09.826Z,7.21
2023-03-02T11:34:46.848Z,7.13
2023-03-02T11:37:18.691Z,7.18
2023-03-02T11:39:55.217Z,7.26
2023-03-02T11:42:28.763Z,7.28
2023-03-02T11:44:56.301Z,7.44
2023-03-02T11:47:23.302Z,7.58
2023-03-02T11:49:55.313Z,7.55
2023-03-02T11:52:26.214Z,7.59
2023-03-02T11:55:14.242Z,7.67
2023-03-02T11:57:49.568Z,7.67
2023-03-02T12:00:38.733Z,8.02
2023-03-02T12:03:46.053Z,8.11
2023-03-02T12:06:18.535Z,7.92
2023-03-02T12:08:47.754Z,7.93
2023-03-02T12:11:16.971Z,8.14
2023-03-02T12:14:01.271Z,8.14
2023-03-02T12:16:45.933Z,8.00
2023-03-02T12:19:12.383Z,7.94
2023-03-02T12:21:41.381Z,8.06
2023-03-02T12:24:24.911Z,8.19
2023-03-02T12:27:00.975Z,8.26
2023-03-02T12:29:39.902Z,8.36
2023-03-02T12:32:24.800Z,8.57
2023-03-02T12:35:15.734Z,8.48
2023-03-02T12:37:53.518Z,8.36
2023-03-02T12:40:52.211Z,8.36
2023-03-02T12:43:27.981Z,8.54
2023-03-02T12:46:19.774Z,8.52
2023-03-02T12:49:12.042Z,8.66
2023-03-02T12:51:54.997Z,8.56
2023-03-02T12:54:25.067Z,8.59
2023-03-02T12:57:06.777Z,8.58
2023-03-02T12:59:33.309Z,8.79
2023-03-02T13:02:21.261Z,8.68
2023-03-02T13:04:58.043Z,8.74
2023-03-02T13:07:28.727Z,8.75
2023-03-02T13:09:58.560Z,9.06
2023-03-02T13:12:28.073Z,9.03
2023-03-02T13:14:57.535Z,8.90
2023-03-02T13:17:31.026Z,8.87
2023-03-02T13:20:03.743Z,8.87
2023-03-02T13:22:30.556Z,9.04
2023-03-02T13:25:08.012Z,9.10
2023-03-02T13:27:34.740Z,8.96
2023-03-02T13:30:21.698Z,9.11
2023-03-02T13:32:48.590Z,9.46
2023-03-02T13:35:19.928Z,9.35
2023-03-02T13:37:46.601Z,9.18
2023-03-02T13:40:21.935Z,9.17
2023-03-02T13:42:48.702Z,9.46
2023-03-02T13:45:30.632Z,9.47
2023-03-02T13:47:59.945Z,9.44
2023-03-02T13:50:29.947Z,9.54
2023-03-02T13:52:58.749Z,9.64
2023-03-02T13:55:25.666Z,9.62
2023-03-02T13:57:54.042Z,9.53
2023-03-02T14:00:28.027Z,9.50
2023-03-02T14:02:54.487Z,9.45
2023-03-02T14:05:25.441Z,9.58
2023-03-02T14:07:52.659Z,9.51
2023-03-02T14:10:20.920Z,9.63
2023-03-02T14:12:57.079Z,9.54
2023-03-02T14:15:23.715Z,9.51
2023-03-02T14:17:50.318Z,9.61
2023-03-02T14:20:19.768Z,9.46
2023-03-02T14:22:47.613Z,9.41
2023-03-02T14:25:14.832Z,9.40
2023-03-02T14:27:42.903Z,9.43
2023-03-02T14:30:19.978Z,9.38
2023-03-02T14:32:47.096Z,9.28
2023-03-02T14:35:16.610Z,9.38
2023-03-02T14:37:47.886Z,9.43
2023-03-02T14:40:17.766Z,9.49
2023-03-02T14:42:44.340Z,9.36
2023-03-02T14:45:11.324Z,9.25
2023-03-02T14:47:37.891Z,9.31
2023-03-02T14:50:05.366Z,9.42
2023-03-02T14:52:33.482Z,9.18
2023-03-02T14:55:05.338Z,9.07
2023-03-02T14:57:35.689Z,9.03
2023-03-02T15:00:02.325Z,8.93
2023-03-02T15:02:28.987Z,8.88
2023-03-02T15:04:57.284Z,8.88
2023-03-02T15:07:26.343Z,8.89
2023-03-02T15:09:52.914Z,8.95
2023-03-02T15:12:19.498Z,8.91
2023-03-02T15:14:45.996Z,8.91
2023-03-02T15:17:12.557Z,9.00
2023-03-02T15:19:39.065Z,9.01
2023-03-02T15:22:05.579Z,8.94
2023-03-02T15:24:33.440Z,8.96
2023-03-02T15:27:00.631Z,8.90
2023-03-02T15:29:27.192Z,8.93
2023-03-02T15:31:53.870Z,8.83
2023-03-02T15:34:20.467Z,8.74
2023-03-02T15:36:46.944Z,8.72
2023-03-02T15:39:14.585Z,8.53
2023-03-02T15:41:44.300Z,8.37
2023-03-02T15:44:22.938Z,8.20
2023-03-02T15:46:53.897Z,8.06
2023-03-02T15:49:24.726Z,7.95
2023-03-02T15:51:52.847Z,7.86
2023-03-02T15:54:19.377Z,7.78
2023-03-02T15:56:49.454Z,7.72
2023-03-02T15:59:15.968Z,7.69
2023-03-02T16:01:42.423Z,7.71
2023-03-02T16:04:09.201Z,7.66
2023-03-02T16:06:35.810Z,7.62
2023-03-02T16:09:03.008Z,7.59
2023-03-02T16:11:29.505Z,7.49
2023-03-02T16:13:56.138Z,7.37
2023-03-02T16:16:22.791Z,7.26
2023-03-02T16:18:59.347Z,7.18
2023-03-02T16:21:28.458Z,7.10
2023-03-02T16:24:02.846Z,6.99
2023-03-02T16:26:29.393Z,6.87
2023-03-02T16:28:55.936Z,6.80
2023-03-02T16:31:26.450Z,6.67
2023-03-02T16:33:53.386Z,6.60
2023-03-02T16:36:20.384Z,6.49
2023-03-02T16:38:46.887Z,6.37
2023-03-02T16:41:21.861Z,6.27
2023-03-02T16:43:52.027Z,6.17
2023-03-02T16:46:20.285Z,6.02
2023-03-02T16:48:47.816Z,5.93
2023-03-02T16:51:15.038Z,5.84
2023-03-02T16:53:41.629Z,5.74
2023-03-02T16:56:09.390Z,5.62
2023-03-02T16:58:38.286Z,5.55
2023-03-02T17:01:06.764Z,5.45
2023-03-02T17:03:34.470Z,5.39
2023-03-02T17:06:01.475Z,5.31
2023-03-02T17:08:28.072Z,5.23
2023-03-02T17:10:57.396Z,5.16
2023-03-02T17:13:23.864Z,5.07
2023-03-02T17:15:50.527Z,5.02
2023-03-02T17:18:17.348Z,4.92
2023-03-02T17:20:44.145Z,4.89
2023-03-02T17:23:12.455Z,4.82
2023-03-02T17:25:39.662Z,4.75
2023-03-02T17:28:06.605Z,4.65
2023-03-02T17:30:33.183Z,4.50
2023-03-02T17:32:59.662Z,4.44
2023-03-02T17:35:26.210Z,4.37
2023-03-02T17:37:52.726Z,4.31
2023-03-02T17:40:19.454Z,4.21
2023-03-02T17:42:45.965Z,4.14
2023-03-02T17:45:23.370Z,4.06
2023-03-02T17:47:51.102Z,3.96
2023-03-02T17:50:17.644Z,3.91
2023-03-02T17:52:46.945Z,3.87
2023-03-02T17:55:13.836Z,3.84
2023-03-02T17:57:40.431Z,3.82
2023-03-02T18:00:10.140Z,3.77
2023-03-02T18:02:36.682Z,3.69
2023-03-02T18:05:03.961Z,3.68
2023-03-02T18:07:30.439Z,3.60
2023-03-02T18:09:56.926Z,3.53
2023-03-02T18:12:23.498Z,3.41
2023-03-02T18:14:50.002Z,3.33
2023-03-02T18:17:16.776Z,3.33
2023-03-02T18:19:43.218Z,3.29
2023-03-02T18:22:10.199Z,3.29
2023-03-02T18:24:36.665Z,3.24
2023-03-02T18:27:03.207Z,3.23
2023-03-02T18:29:29.700Z,3.15
2023-03-02T18:31:56.210Z,3.06
2023-03-02T18:34:22.802Z,3.08
2023-03-02T18:36:50.023Z,3.07
2023-03-02T18:39:16.567Z,3.10
2023-03-02T18:41:43.093Z,2.99
2023-03-02T18:44:10.066Z,2.97
2023-03-02T18:46:36.637Z,2.87
2023-03-02T18:49:04.506Z,2.80
2023-03-02T18:51:31.137Z,2.79
2023-03-02T18:53:57.678Z,2.76
2023-03-02T18:56:25.422Z,2.81
2023-03-02T18:58:52.007Z,2.74
2023-03-02T19:01:19.028Z,2.81
2023-03-02T19:03:45.898Z,2.79
2023-03-02T19:06:14.000Z,2.76
2023-03-02T19:08:40.580Z,2.66
2023-03-02T19:11:07.538Z,2.51
2023-03-02T19:13:34.078Z,2.47
2023-03-02T19:16:01.888Z,2.46
2023-03-02T19:18:29.158Z,2.45
2023-03-02T19:20:57.410Z,2.45
2023-03-02T19:23:24.131Z,2.34
2023-03-02T19:25:50.799Z,2.26
2023-03-02T19:28:17.296Z,2.25
2023-03-02T19:30:43.760Z,2.20
2023-03-02T19:33:10.330Z,2.15
2023-03-02T19:35:37.856Z,2.14
2023-03-02T19:38:05.902Z,2.04
2023-03-02T19:40:32.503Z,1.99
2023-03-02T19:42:58.932Z,2.02
2023-03-02T19:45:29.108Z,2.03
2023-03-02T19:47:57.784Z,2.06
2023-03-02T19:50:26.733Z,2.03
2023-03-02T19:52:54.757Z,2.02
2023-03-02T19:55:22.310Z,2.01
2023-03-02T19:57:56.505Z,2.00
2023-03-02T20:00:24.143Z,2.06
2023-03-02T20:02:51.045Z,2.03
2023-03-02T20:05:17.673Z,2.01
2023-03-02T20:07:44.302Z,1.99
2023-03-02T20:10:11.581Z,1.94
2023-03-02T20:12:38.195Z,1.83
2023-03-02T20:15:06.303Z,1.83
2023-03-02T20:17:33.785Z,1.74
2023-03-02T20:20:03.617Z,1.74
2023-03-02T20:22:30.171Z,1.70
2023-03-02T20:24:56.646Z,1.65
2023-03-02T20:27:23.199Z,1.63
2023-03-02T20:29:49.658Z,1.55
2023-03-02T20:32:16.780Z,1.50
2023-03-02T20:34:43.815Z,1.50
2023-03-02T20:37:13.551Z,1.49
2023-03-02T20:39:42.515Z,1.36
2023-03-02T20:42:10.110Z,1.30
2023-03-02T20:44:37.835Z,1.26
2023-03-02T20:47:10.806Z,1.30
2023-03-02T20:49:37.630Z,1.29
2023-03-02T20:52:05.656Z,1.35
2023-03-02T20:54:37.226Z,1.27
2023-03-02T20:57:05.284Z,1.21
2023-03-02T20:59:32.374Z,1.15
2023-03-02T21:01:59.056Z,1.11
2023-03-02T21:04:25.813Z,1.07
2023-03-02T21:06:52.658Z,1.02
2023-03-02T21:09:20.172Z,0.93
2023-03-02T21:11:46.897Z,0.83
2023-03-02T21:14:14.189Z,0.75
2023-03-02T21:16:43.648Z,0.75
2023-03-02T21:19:16.612Z,0.66
2023-03-02T21:21:43.299Z,0.61
2023-03-02T21:24:18.432Z,0.57
2023-03-02T21:26:46.199Z,0.60
2023-03-02T21:29:13.900Z,0.59
2023-03-02T21:31:42.280Z,0.66
2023-03-02T21:34:08.794Z,0.58
2023-03-02T21:36:35.724Z,0.54
2023-03-02T21:39:03.564Z,0.46
2023-03-02T21:41:30.463Z,0.41
2023-03-02T21:43:57.714Z,0.41
2023-03-02T21:46:24.218Z,0.39
2023-03-02T21:48:51.805Z,0.38
2023-03-02T21:51:19.346Z,0.32
2023-03-02T21:53:46.125Z,0.29
2023-03-02T21:56:24.224Z,0.31
2023-03-02T21:58:53.794Z,0.26
2023-03-02T22:01:21.491Z,0.25
2023-03-02T22:03:48.203Z,0.21
2023-03-02T22:06:23.836Z,0.25
2023-03-02T22:08:51.117Z,0.25
2023-03-02T22:11:23.848Z,0.24
2023-03-02T22:13:51.616Z,0.23
2023-03-02T22:16:22.626Z,0.21
2023-03-02T22:18:54.167Z,0.10
2023-03-02T22:21:31.582Z,-0.01
2023-03-02T22:24:05.370Z,-0.04
2023-03-02T22:26:33.771Z,-0.08
2023-03-02T22:29:13.666Z,-0.15
2023-03-02T22:31:45.982Z,-0.07
2023-03-02T22:34:20.425Z,-0.03
2023-03-02T22:36:47.127Z,0.08
2023-03-02T22:39:31.751Z,0.19
2023-03-02T22:42:19.454Z,0.28
2023-03-02T22:44:50.441Z,0.33
2023-03-02T22:47:20.380Z,0.34
2023-03-02T22:49:47.766Z,0.30
2023-03-02T22:52:19.865Z,0.31
2023-03-02T22:54:46.381Z,0.25
2023-03-02T22:57:35.418Z,0.24
2023-03-02T23:00:14.162Z,0.23
2023-03-02T23:02:44.824Z,0.18
2023-03-02T23:05:30.413Z,0.10
2023-03-02T23:08:17.992Z,0.05
2023-03-02T23:10:46.065Z,-0.05
2023-03-02T23:13:15.264Z,-0.11
2023-03-02T23:15:41.865Z,-0.13
2023-03-02T23:18:26.692Z,-0.18
2023-03-02T23:20:53.651Z,-0.32
2023-03-02T23:23:22.457Z,-0.40
2023-03-02T23:25:49.277Z,-0.50
2023-03-02T23:28:15.766Z,-0.57
2023-03-02T23:30:42.279Z,-0.53
2023-03-02T23:33:09.303Z,-0.58
2023-03-02T23:35:35.904Z,-0.61
2023-03-02T23:38:02.459Z,-0.62
2023-03-02T23:40:29.142Z,-0.66
2023-03-02T23:42:56.029Z,-0.70
2023-03-02T23:45:22.551Z,-0.68
2023-03-02T23:47:49.088Z,-0.68
2023-03-02T23:50:15.573Z,-0.64
2023-03-02T23:52:42.140Z,-0.61
2023-03-02T23:55:09.536Z,-0.59
2023-03-02T23:57:36.052Z,-0.57
